Time;durP1;ratioP1;P1;durP2;ratioP2;P2;SDS_P1;SDS_P2;PMS_P1;PMS_P2;Temp;Humidity;BMP_temperature;BMP_pressure;BME280_temperature;BME280_humidity;BME280_pressure;Samples;Min_cycle;Max_cycle;Signal;HPM_P1;HPM_P2
2024/01/31 00:00:47;;;;;;;2.40;2.40;;;17.60;69.50;;;;;;5035514;28;43418;-66
2024/01/31 00:03:15;;;;;;;2.33;2.33;;;17.60;69.60;;;;;;5032433;28;43923;-66
2024/01/31 00:05:45;;;;;;;2.83;2.77;;;17.50;69.60;;;;;;5034064;28;43349;-67
2024/01/31 00:08:13;;;;;;;2.10;2.10;;;17.50;69.70;;;;;;5036067;28;43460;-67
2024/01/31 00:10:41;;;;;;;2.20;2.20;;;17.50;69.60;;;;;;5031664;28;43817;-66
2024/01/31 00:13:09;;;;;;;2.40;2.40;;;17.50;69.70;;;;;;5035254;28;43921;-67
2024/01/31 00:15:37;;;;;;;2.37;2.37;;;17.50;69.70;;;;;;5039083;28;43427;-66
2024/01/31 00:18:05;;;;;;;2.30;2.20;;;17.50;69.80;;;;;;5035033;28;43373;-67
2024/01/31 00:20:33;;;;;;;2.20;2.20;;;17.40;69.80;;;;;;5031772;28;43893;-67
2024/01/31 00:23:03;;;;;;;2.23;2.23;;;17.40;70.00;;;;;;5033502;28;43854;-66
2024/01/31 00:25:31;;;;;;;2.20;2.20;;;17.40;69.80;;;;;;5037924;28;43432;-66
2024/01/31 00:27:59;;;;;;;1.90;1.90;;;17.40;69.90;;;;;;5038860;28;43884;-66
2024/01/31 00:30:28;;;;;;;2.00;2.00;;;17.40;69.90;;;;;;5031848;28;43509;-66
2024/01/31 00:32:56;;;;;;;2.33;2.23;;;17.40;70.00;;;;;;5034144;28;43599;-66
2024/01/31 00:35:24;;;;;;;2.27;2.20;;;17.40;70.10;;;;;;5029330;28;44039;-66
2024/01/31 00:37:53;;;;;;;2.27;2.27;;;17.40;70.20;;;;;;5030043;28;43450;-67
2024/01/31 00:40:22;;;;;;;2.23;2.23;;;17.40;70.10;;;;;;5035717;28;43570;-66
2024/01/31 00:42:50;;;;;;;2.10;2.10;;;17.40;70.10;;;;;;5032597;28;43921;-67
2024/01/31 00:45:18;;;;;;;2.10;2.10;;;17.40;70.00;;;;;;5031573;28;43369;-66
2024/01/31 00:47:46;;;;;;;1.90;1.90;;;17.40;70.10;;;;;;5033054;28;43422;-67
2024/01/31 00:50:15;;;;;;;2.10;2.10;;;17.40;70.10;;;;;;5027765;28;43285;-67
2024/01/31 00:52:43;;;;;;;2.10;2.10;;;17.40;70.20;;;;;;5027474;28;43862;-67
2024/01/31 00:55:11;;;;;;;2.40;2.40;;;17.40;70.20;;;;;;5034705;28;43411;-67
2024/01/31 00:57:40;;;;;;;2.03;2.03;;;17.50;70.00;;;;;;5034722;28;43358;-67
2024/01/31 01:00:11;;;;;;;2.10;2.10;;;17.60;69.60;;;;;;5032481;28;43424;-66
2024/01/31 01:02:40;;;;;;;2.10;2.10;;;17.70;69.30;;;;;;5032889;28;43885;-67
2024/01/31 01:05:08;;;;;;;2.10;2.10;;;17.70;69.10;;;;;;5030735;28;43368;-67
2024/01/31 01:07:38;;;;;;;2.10;2.10;;;17.60;69.20;;;;;;5031289;28;43444;-67
2024/01/31 01:10:07;;;;;;;1.80;1.80;;;17.60;69.30;;;;;;5034850;28;43424;-67
2024/01/31 01:12:35;;;;;;;2.00;2.00;;;17.60;70.00;;;;;;5035124;28;43769;-67
2024/01/31 01:15:06;;;;;;;2.20;2.20;;;17.60;69.30;;;;;;5031469;28;43351;-66
2024/01/31 01:17:43;;;;;;;2.00;2.00;;;17.60;69.50;;;;;;5033301;28;43376;-66
2024/01/31 01:20:11;;;;;;;1.80;1.80;;;17.50;69.50;;;;;;5026842;28;43439;-66
2024/01/31 01:22:42;;;;;;;1.83;1.83;;;17.50;69.70;;;;;;5029228;28;43610;-67
2024/01/31 01:25:10;;;;;;;2.10;2.10;;;17.50;69.90;;;;;;5025437;28;43414;-67
2024/01/31 01:27:39;;;;;;;1.50;1.50;;;17.50;69.80;;;;;;5033785;28;43341;-67
2024/01/31 01:30:10;;;;;;;1.80;1.80;;;17.50;69.80;;;;;;5036371;28;43503;-67
2024/01/31 01:32:38;;;;;;;2.00;2.00;;;17.40;69.80;;;;;;5011147;28;44084;-68
2024/01/31 01:35:07;;;;;;;1.73;1.73;;;17.40;69.90;;;;;;5010649;28;43970;-68
2024/01/31 01:37:35;;;;;;;1.90;1.90;;;17.40;69.90;;;;;;5009888;28;43412;-68
2024/01/31 01:40:04;;;;;;;1.90;1.90;;;17.40;70.10;;;;;;5012521;28;43415;-68
2024/01/31 01:42:32;;;;;;;1.80;1.80;;;17.40;69.90;;;;;;5007807;28;43619;-68
2024/01/31 01:45:00;;;;;;;1.80;1.80;;;17.40;69.90;;;;;;5013754;28;43428;-68
2024/01/31 01:47:29;;;;;;;1.60;1.60;;;17.40;69.90;;;;;;5007368;28;43504;-69
2024/01/31 01:49:58;;;;;;;1.90;1.90;;;17.40;70.00;;;;;;5009392;28;43528;-69
2024/01/31 01:52:26;;;;;;;2.10;2.10;;;17.40;70.00;;;;;;5010642;28;43921;-68
2024/01/31 01:54:54;;;;;;;2.10;2.10;;;17.40;70.10;;;;;;5013287;28;43433;-68
2024/01/31 01:57:22;;;;;;;2.00;2.00;;;17.40;70.20;;;;;;5016573;28;43419;-69
2024/01/31 01:59:50;;;;;;;1.80;1.80;;;17.50;70.00;;;;;;5015042;28;43494;-69
2024/01/31 02:02:18;;;;;;;1.97;1.97;;;17.60;69.60;;;;;;5018540;28;43921;-69
2024/01/31 02:04:48;;;;;;;1.73;1.73;;;17.60;69.30;;;;;;5013850;28;43340;-69
2024/01/31 02:07:20;;;;;;;1.83;1.83;;;17.60;69.30;;;;;;5014259;28;43420;-75
2024/01/31 02:09:49;;;;;;;1.90;1.90;;;17.60;69.40;;;;;;5016286;28;43420;-69
2024/01/31 02:12:17;;;;;;;1.70;1.70;;;17.60;69.60;;;;;;5010087;28;43901;-69
2024/01/31 02:14:47;;;;;;;1.90;1.90;;;17.60;70.20;;;;;;5013455;28;43396;-69
2024/01/31 02:17:15;;;;;;;1.87;1.87;;;17.50;69.50;;;;;;5013327;28;43918;-68
2024/01/31 02:19:43;;;;;;;1.83;1.83;;;17.50;69.60;;;;;;5017984;28;44162;-69
2024/01/31 02:22:17;;;;;;;1.60;1.50;;;17.50;69.70;;;;;;5009991;28;43786;-68
2024/01/31 02:24:45;;;;;;;1.60;1.60;;;17.40;69.70;;;;;;5009938;28;43925;-68
2024/01/31 02:27:13;;;;;;;1.40;1.40;;;17.40;69.90;;;;;;5013573;28;43809;-68
2024/01/31 02:29:41;;;;;;;1.60;1.60;;;17.40;69.80;;;;;;5016430;28;43326;-68
2024/01/31 02:32:09;;;;;;;1.70;1.70;;;17.40;69.80;;;;;;5012703;28;43619;-68
2024/01/31 02:34:37;;;;;;;1.63;1.63;;;17.40;69.80;;;;;;5011701;28;43425;-68
2024/01/31 02:37:05;;;;;;;1.77;1.77;;;17.40;69.90;;;;;;5019372;28;43529;-68
2024/01/31 02:39:35;;;;;;;1.80;1.80;;;17.40;70.00;;;;;;5012716;28;43509;-68
2024/01/31 02:42:04;;;;;;;1.60;1.60;;;17.40;70.10;;;;;;5013370;28;43879;-68
2024/01/31 02:44:32;;;;;;;1.50;1.50;;;17.40;70.00;;;;;;5015683;28;43685;-68
2024/01/31 02:47:00;;;;;;;1.77;1.77;;;17.40;70.00;;;;;;5013722;28;43372;-68
2024/01/31 02:49:28;;;;;;;1.90;1.90;;;17.40;70.00;;;;;;5018341;28;43331;-68
2024/01/31 02:51:56;;;;;;;1.60;1.60;;;17.40;70.00;;;;;;5015851;28;43589;-68
2024/01/31 02:54:24;;;;;;;1.97;1.97;;;17.40;70.10;;;;;;5014999;28;43905;-67
2024/01/31 02:56:53;;;;;;;1.50;1.50;;;17.40;70.20;;;;;;5015932;28;44045;-68
2024/01/31 02:59:22;;;;;;;1.60;1.60;;;17.40;70.20;;;;;;5014873;28;43902;-67
2024/01/31 03:01:50;;;;;;;1.50;1.50;;;17.50;70.00;;;;;;5015287;28;43616;-67
2024/01/31 03:04:19;;;;;;;1.73;1.73;;;17.60;69.60;;;;;;5017312;28;43432;-68
2024/01/31 03:06:47;;;;;;;1.60;1.60;;;17.60;69.30;;;;;;5011726;28;43412;-70
2024/01/31 03:09:16;;;;;;;1.57;1.57;;;17.60;69.30;;;;;;5009012;28;43419;-68
2024/01/31 03:11:44;;;;;;;1.73;1.73;;;17.60;69.40;;;;;;5012242;28;43939;-74
2024/01/31 03:14:13;;;;;;;1.77;1.77;;;17.60;70.30;;;;;;5011525;28;43476;-67
2024/01/31 03:16:41;;;;;;;1.53;1.53;;;17.60;69.50;;;;;;5013420;28;43301;-68
2024/01/31 03:19:09;;;;;;;1.80;1.80;;;17.50;69.50;;;;;;5015253;28;43500;-67
2024/01/31 03:21:38;;;;;;;1.57;1.57;;;17.50;69.60;;;;;;5016260;28;43784;-69
2024/01/31 03:24:06;;;;;;;1.50;1.50;;;17.50;69.80;;;;;;5013862;28;43468;-69
2024/01/31 03:26:34;;;;;;;1.40;1.40;;;17.40;69.80;;;;;;5020362;28;44316;-68
2024/01/31 03:29:02;;;;;;;1.70;1.70;;;17.40;70.00;;;;;;5012384;28;43516;-69
2024/01/31 03:31:31;;;;;;;1.40;1.40;;;17.40;69.90;;;;;;5015132;28;43933;-67
2024/01/31 03:33:59;;;;;;;1.47;1.47;;;17.40;69.90;;;;;;5009826;28;43408;-67
2024/01/31 03:36:28;;;;;;;1.90;1.90;;;17.40;70.00;;;;;;5011577;28;44116;-69
2024/01/31 03:38:58;;;;;;;1.50;1.50;;;17.40;70.10;;;;;;5019705;28;43452;-67
2024/01/31 03:41:27;;;;;;;1.67;1.67;;;17.40;70.10;;;;;;5014525;28;43572;-68
2024/01/31 03:43:55;;;;;;;1.50;1.50;;;17.30;70.20;;;;;;5010065;28;43363;-68
2024/01/31 03:46:24;;;;;;;1.47;1.47;;;17.40;70.10;;;;;;5014471;28;43937;-69
2024/01/31 03:48:54;;;;;;;1.60;1.60;;;17.40;70.10;;;;;;5016233;28;43530;-68
2024/01/31 03:51:22;;;;;;;1.40;1.40;;;17.30;70.00;;;;;;5008755;28;43589;-69
2024/01/31 03:53:50;;;;;;;1.40;1.40;;;17.30;70.10;;;;;;5010122;28;43474;-67
2024/01/31 03:56:18;;;;;;;1.67;1.67;;;17.30;70.10;;;;;;5015075;28;43432;-67
2024/01/31 03:58:46;;;;;;;1.43;1.43;;;17.30;70.30;;;;;;5016001;28;43519;-67
2024/01/31 04:01:15;;;;;;;1.70;1.70;;;17.40;70.30;;;;;;5011938;28;45909;-68
2024/01/31 04:03:44;;;;;;;1.60;1.60;;;17.40;70.00;;;;;;5009868;28;43435;-68
2024/01/31 04:06:13;;;;;;;1.60;1.60;;;17.60;69.70;;;;;;5002249;28;43416;-68
2024/01/31 04:08:41;;;;;;;1.50;1.50;;;17.60;69.30;;;;;;5007311;28;43357;-67
2024/01/31 04:11:09;;;;;;;5.40;1.90;;;17.60;69.10;;;;;;5012145;28;43599;-68
2024/01/31 04:13:37;;;;;;;1.50;1.50;;;17.60;69.30;;;;;;5018650;28;43416;-67
2024/01/31 04:16:07;;;;;;;1.50;1.50;;;17.60;69.40;;;;;;5006623;28;43457;-67
2024/01/31 04:18:35;;;;;;;1.60;1.60;;;17.60;69.30;;;;;;5016870;28;43387;-69
2024/01/31 04:21:03;;;;;;;1.50;1.50;;;17.60;69.40;;;;;;5012234;28;43940;-68
2024/01/31 04:23:32;;;;;;;1.40;1.40;;;17.60;69.40;;;;;;5005215;28;43928;-68
2024/01/31 04:26:01;;;;;;;1.50;1.50;;;17.50;69.50;;;;;;5011447;28;43353;-68
2024/01/31 04:28:30;;;;;;;1.40;1.40;;;17.50;69.60;;;;;;5014578;28;43435;-67
2024/01/31 04:30:58;;;;;;;1.40;1.40;;;17.50;69.80;;;;;;5012919;28;44218;-70
2024/01/31 04:33:26;;;;;;;1.60;1.60;;;17.50;69.60;;;;;;4999420;28;45107;-68
2024/01/31 04:35:54;;;;;;;1.70;1.70;;;17.50;69.70;;;;;;5010262;28;43468;-69
2024/01/31 04:38:22;;;;;;;1.30;1.30;;;17.50;69.70;;;;;;5015729;28;43405;-67
2024/01/31 04:40:52;;;;;;;1.37;1.37;;;17.40;69.70;;;;;;5015213;28;43624;-67
2024/01/31 04:43:20;;;;;;;1.60;1.60;;;17.40;69.70;;;;;;5009666;28;43378;-67
2024/01/31 04:45:48;;;;;;;1.23;1.23;;;17.40;69.90;;;;;;5014597;28;43419;-68
2024/01/31 04:48:16;;;;;;;1.63;1.63;;;17.40;69.70;;;;;;5018719;28;43393;-68
2024/01/31 04:50:45;;;;;;;1.33;1.33;;;17.50;69.80;;;;;;5010948;28;46016;-67
2024/01/31 04:53:13;;;;;;;1.27;1.27;;;17.40;69.80;;;;;;5008754;28;44493;-70
2024/01/31 04:55:41;;;;;;;1.30;1.30;;;17.40;69.80;;;;;;5012004;28;43333;-67
2024/01/31 04:58:10;;;;;;;1.67;1.67;;;17.40;69.80;;;;;;5009974;28;43963;-68
2024/01/31 05:00:38;;;;;;;1.67;1.67;;;17.40;70.10;;;;;;5009146;28;43843;-68
2024/01/31 05:03:07;;;;;;;1.53;1.53;;;17.50;70.00;;;;;;5015580;28;44049;-68
2024/01/31 05:05:35;;;;;;;1.47;1.47;;;17.60;69.60;;;;;;5012876;28;43410;-67
2024/01/31 05:08:03;;;;;;;1.40;1.40;;;17.60;69.30;;;;;;5013208;28;43409;-68
2024/01/31 05:10:34;;;;;;;1.50;1.50;;;17.70;69.20;;;;;;5012811;28;43885;-68
2024/01/31 05:13:02;;;;;;;1.53;1.50;;;17.60;69.10;;;;;;5009537;28;43459;-76
2024/01/31 05:15:32;;;;;;;1.40;1.40;;;17.60;69.40;;;;;;5010593;28;43436;-68
2024/01/31 05:18:00;;;;;;;1.30;1.30;;;17.60;69.40;;;;;;5012932;28;43346;-68
2024/01/31 05:20:29;;;;;;;1.40;1.40;;;17.60;69.30;;;;;;5009030;28;43851;-68
2024/01/31 05:22:57;;;;;;;1.40;1.40;;;17.60;69.40;;;;;;5013210;28;43910;-68
2024/01/31 05:25:25;;;;;;;1.40;1.40;;;17.60;70.30;;;;;;5009290;28;43893;-68
2024/01/31 05:27:53;;;;;;;1.30;1.30;;;17.50;69.50;;;;;;5010744;28;43549;-68
2024/01/31 05:30:21;;;;;;;1.30;1.30;;;17.50;69.70;;;;;;5005171;28;43597;-68
2024/01/31 05:32:50;;;;;;;1.13;1.13;;;17.50;69.80;;;;;;5013312;28;43990;-68
2024/01/31 05:35:19;;;;;;;1.23;1.23;;;17.50;69.60;;;;;;5008950;28;43419;-68
2024/01/31 05:37:47;;;;;;;1.40;1.40;;;17.50;69.70;;;;;;5011265;28;43420;-68
2024/01/31 05:40:16;;;;;;;1.30;1.30;;;17.50;69.70;;;;;;5010213;28;43609;-68
2024/01/31 05:42:44;;;;;;;1.40;1.40;;;17.50;69.80;;;;;;5007946;28;43427;-68
2024/01/31 05:45:13;;;;;;;1.30;1.30;;;17.40;69.80;;;;;;5013407;28;43310;-68
2024/01/31 05:47:41;;;;;;;1.37;1.37;;;17.40;70.00;;;;;;5008428;28;44008;-68
2024/01/31 05:50:13;;;;;;;1.53;1.53;;;17.50;69.90;;;;;;4998108;28;43918;-67
2024/01/31 05:52:41;;;;;;;1.43;1.43;;;17.60;69.50;;;;;;5000942;28;43503;-68
2024/01/31 05:55:14;;;;;;;1.30;1.30;;;17.60;69.20;;;;;;5000207;28;43446;-68
2024/01/31 05:57:42;;;;;;;1.30;1.30;;;17.60;69.00;;;;;;4997411;28;44102;-68
2024/01/31 06:00:13;;;;;;;1.40;1.40;;;17.60;69.20;;;;;;5009242;28;43623;-68
2024/01/31 06:02:41;;;;;;;1.30;1.30;;;17.60;69.60;;;;;;5013428;28;46107;-68
2024/01/31 06:05:09;;;;;;;1.20;1.20;;;17.60;69.40;;;;;;5012808;28;43396;-68
2024/01/31 06:07:39;;;;;;;1.30;1.30;;;17.60;69.40;;;;;;5009196;28;43538;-68
2024/01/31 06:10:09;;;;;;;1.20;1.20;;;17.50;69.40;;;;;;5009172;28;43770;-68
2024/01/31 06:12:37;;;;;;;1.40;1.40;;;17.50;69.60;;;;;;5026854;28;43362;-66
2024/01/31 06:15:06;;;;;;;1.30;1.30;;;17.50;69.70;;;;;;5030264;28;43357;-66
2024/01/31 06:17:34;;;;;;;1.17;1.17;;;17.40;69.80;;;;;;5033077;28;43464;-66
2024/01/31 06:20:04;;;;;;;1.30;1.30;;;17.40;69.60;;;;;;5031501;28;43604;-66
2024/01/31 06:22:33;;;;;;;1.27;1.27;;;17.40;69.70;;;;;;5033725;28;44754;-66
2024/01/31 06:25:03;;;;;;;1.40;1.40;;;17.40;69.70;;;;;;5036862;28;43443;-67
2024/01/31 06:27:31;;;;;;;1.30;1.30;;;17.40;69.80;;;;;;5029482;28;43474;-66
2024/01/31 06:30:00;;;;;;;1.40;1.40;;;17.40;69.80;;;;;;5038490;28;45653;-66
2024/01/31 06:32:32;;;;;;;1.30;1.30;;;17.40;70.00;;;;;;5036229;28;43317;-67
2024/01/31 06:35:00;;;;;;;1.30;1.30;;;17.40;69.80;;;;;;5029137;28;43486;-66
2024/01/31 06:37:28;;;;;;;1.20;1.20;;;17.40;69.80;;;;;;5035323;28;43370;-66
2024/01/31 06:39:56;;;;;;;1.10;1.10;;;17.40;69.80;;;;;;5033084;28;43859;-66
2024/01/31 06:42:26;;;;;;;1.20;1.20;;;17.40;69.80;;;;;;5032377;28;43432;-66
2024/01/31 06:44:54;;;;;;;1.30;1.30;;;17.40;69.80;;;;;;5034414;28;43368;-66
2024/01/31 06:47:22;;;;;;;1.20;1.20;;;17.40;69.90;;;;;;5040203;28;43413;-66
2024/01/31 06:49:50;;;;;;;1.40;1.40;;;17.50;70.00;;;;;;5036439;28;43625;-66
2024/01/31 06:52:20;;;;;;;1.20;1.20;;;17.50;69.70;;;;;;5032981;28;43380;-66
2024/01/31 06:54:48;;;;;;;1.30;1.30;;;17.70;69.40;;;;;;5030455;28;43425;-66
2024/01/31 06:57:16;;;;;;;1.10;1.10;;;17.70;69.10;;;;;;5036702;28;43514;-66
2024/01/31 06:59:46;;;;;;;1.20;1.20;;;17.70;69.00;;;;;;5035543;28;46001;-66
2024/01/31 07:02:14;;;;;;;1.10;1.10;;;17.70;69.10;;;;;;5031551;28;43440;-66
2024/01/31 07:04:42;;;;;;;1.17;1.17;;;17.60;69.30;;;;;;5032113;28;43312;-66
2024/01/31 07:07:13;;;;;;;1.10;1.10;;;17.60;69.90;;;;;;5032806;28;43503;-66
2024/01/31 07:09:41;;;;;;;1.00;1.00;;;17.60;69.20;;;;;;5032853;28;43615;-66
2024/01/31 07:12:09;;;;;;;1.00;1.00;;;17.60;69.30;;;;;;5032967;28;43452;-66
2024/01/31 07:14:37;;;;;;;1.13;1.13;;;17.60;69.40;;;;;;5032790;28;43431;-66
2024/01/31 07:17:07;;;;;;;1.10;1.10;;;17.50;69.50;;;;;;5040013;28;43423;-66
2024/01/31 07:19:35;;;;;;;1.20;1.20;;;17.50;69.70;;;;;;5031120;28;46162;-66
2024/01/31 07:22:03;;;;;;;1.07;1.07;;;17.50;69.60;;;;;;5036646;28;43403;-67
2024/01/31 07:37:10;;;;;;;1.10;1.10;;;17.50;70.00;;;;;;5010410;28;44110;-69
2024/01/31 07:39:42;;;;;;;1.13;1.13;;;17.60;69.60;;;;;;5010373;28;43712;-68
2024/01/31 07:42:10;;;;;;;1.00;1.00;;;17.60;69.30;;;;;;5007513;28;43480;-69
2024/01/31 07:44:38;;;;;;;1.00;1.00;;;17.60;69.20;;;;;;5004878;28;43970;-69
2024/01/31 07:47:06;;;;;;;1.00;1.00;;;17.60;69.20;;;;;;5015559;28;43416;-69
2024/01/31 07:49:34;;;;;;;1.03;1.03;;;17.60;69.40;;;;;;5007187;28;43915;-68
2024/01/31 07:52:02;;;;;;;1.00;1.00;;;17.60;69.40;;;;;;5001368;28;43501;-68
2024/01/31 07:54:32;;;;;;;1.07;1.07;;;17.60;69.30;;;;;;4998772;28;44065;-68
2024/01/31 07:57:00;;;;;;;1.10;1.10;;;17.60;69.40;;;;;;5005543;28;43366;-68
2024/01/31 07:59:28;;;;;;;1.07;1.07;;;17.50;69.40;;;;;;5006079;28;43556;-68
2024/01/31 08:01:56;;;;;;;1.00;1.00;;;17.50;69.50;;;;;;5006284;28;43988;-69
2024/01/31 08:04:24;;;;;;;1.00;1.00;;;17.50;69.60;;;;;;5006853;28;43932;-68
2024/01/31 08:06:52;;;;;;;1.10;1.10;;;17.50;69.70;;;;;;5010592;28;43443;-68
2024/01/31 08:09:22;;;;;;;1.20;1.20;;;17.50;69.50;;;;;;5003307;28;43481;-68
2024/01/31 08:11:52;;;;;;;1.00;1.00;;;17.50;69.60;;;;;;5014378;28;43452;-68
2024/01/31 08:14:20;;;;;;;1.07;1.07;;;17.50;69.60;;;;;;5013191;28;43601;-68
2024/01/31 08:16:49;;;;;;;0.90;0.90;;;17.50;69.70;;;;;;5011186;28;43793;-69
2024/01/31 08:19:18;;;;;;;1.20;1.20;;;17.40;69.70;;;;;;5013726;28;43439;-69
2024/01/31 08:21:47;;;;;;;1.13;1.13;;;17.40;69.80;;;;;;5011488;28;43500;-68
2024/01/31 08:24:18;;;;;;;1.00;1.00;;;17.50;69.80;;;;;;5000176;28;44024;-68
2024/01/31 08:26:46;;;;;;;1.50;1.50;;;17.60;69.60;;;;;;5004671;28;43461;-69
2024/01/31 08:29:15;;;;;;;1.40;1.40;;;17.60;69.20;;;;;;4997668;28;43375;-69
2024/01/31 08:31:54;;;;;;;1.30;1.30;;;17.60;69.00;;;;;;5003967;28;43535;-68
2024/01/31 08:34:23;;;;;;;1.50;1.50;;;17.60;69.20;;;;;;5014060;28;44003;-69
2024/01/31 08:36:59;;;;;;;1.80;1.70;;;17.60;69.50;;;;;;5013872;28;43350;-68
2024/01/31 08:39:29;;;;;;;1.70;1.60;;;17.60;69.40;;;;;;5009535;28;43867;-68
2024/01/31 08:41:57;;;;;;;2.47;1.97;;;17.60;69.40;;;;;;5007743;28;43531;-68
2024/01/31 08:44:29;;;;;;;2.17;1.83;;;17.50;69.30;;;;;;5007592;28;47158;-68
2024/01/31 08:46:57;;;;;;;2.13;1.97;;;17.50;69.40;;;;;;5014763;28;43912;-68
2024/01/31 08:49:45;;;;;;;2.23;2.00;;;17.50;69.50;;;;;;5010555;28;43978;-68
2024/01/31 08:52:13;;;;;;;2.20;2.00;;;17.50;69.80;;;;;;5011791;28;43402;-68
2024/01/31 08:54:41;;;;;;;2.10;2.00;;;17.50;69.70;;;;;;5015166;28;43607;-68
2024/01/31 08:57:09;;;;;;;2.30;2.10;;;17.50;69.60;;;;;;5015459;28;43488;-68
2024/01/31 08:59:39;;;;;;;2.13;2.03;;;17.50;69.60;;;;;;5010440;28;43495;-68
2024/01/31 09:02:07;;;;;;;2.37;2.27;;;17.40;69.60;;;;;;5018434;28;43894;-68
2024/01/31 09:04:35;;;;;;;2.60;2.40;;;17.40;69.70;;;;;;5012128;28;43618;-68
2024/01/31 09:07:04;;;;;;;4.37;2.73;;;17.40;69.80;;;;;;5010313;28;43408;-68
2024/01/31 09:09:37;;;;;;;2.40;2.20;;;17.40;69.90;;;;;;5013311;28;43560;-68
2024/01/31 09:12:06;;;;;;;2.43;2.30;;;17.50;69.70;;;;;;5008731;28;43448;-68
2024/01/31 09:14:34;;;;;;;2.47;2.30;;;17.60;69.40;;;;;;5010683;28;43600;-67
2024/01/31 09:17:04;;;;;;;2.40;2.30;;;17.60;69.20;;;;;;5015684;28;43424;-68
2024/01/31 09:19:32;;;;;;;2.93;2.73;;;17.60;69.30;;;;;;5007233;28;43943;-67
2024/01/31 09:22:00;;;;;;;2.17;2.07;;;17.60;69.30;;;;;;5014434;28;44082;-68
2024/01/31 09:24:28;;;;;;;2.63;2.43;;;17.50;69.50;;;;;;5017290;28;43621;-67
2024/01/31 09:26:56;;;;;;;2.33;2.13;;;17.50;69.30;;;;;;5011679;28;43395;-67
2024/01/31 09:29:27;;;;;;;3.00;2.80;;;17.50;69.30;;;;;;5012504;28;43399;-67
2024/01/31 09:31:55;;;;;;;2.20;2.10;;;17.50;69.40;;;;;;5015384;28;43325;-67
2024/01/31 09:34:27;;;;;;;2.93;2.60;;;17.50;69.50;;;;;;5009556;28;45579;-67
2024/01/31 09:36:55;;;;;;;2.60;2.50;;;17.50;69.60;;;;;;5008651;28;44083;-67
2024/01/31 09:39:23;;;;;;;2.60;2.40;;;17.40;69.80;;;;;;5010890;28;43376;-68
2024/01/31 09:41:51;;;;;;;2.20;2.10;;;17.40;69.70;;;;;;5007074;28;43782;-67
2024/01/31 09:44:19;;;;;;;2.60;2.50;;;17.40;69.70;;;;;;5014997;28;43953;-67
2024/01/31 09:46:47;;;;;;;2.60;2.40;;;17.40;69.70;;;;;;5014170;28;43994;-67
2024/01/31 09:49:15;;;;;;;2.87;2.67;;;17.40;69.70;;;;;;5010842;28;43367;-68
2024/01/31 09:51:45;;;;;;;2.70;2.40;;;17.40;69.80;;;;;;5013468;28;43293;-68
2024/01/31 09:54:13;;;;;;;2.60;2.40;;;17.40;70.00;;;;;;5011633;28;43607;-68
2024/01/31 09:56:41;;;;;;;3.07;2.77;;;17.40;70.00;;;;;;5010857;28;43488;-67
2024/01/31 09:59:10;;;;;;;2.87;2.63;;;17.50;69.80;;;;;;5012637;28;43525;-68
2024/01/31 10:01:38;;;;;;;2.70;2.50;;;17.60;69.30;;;;;;5009943;28;43483;-68
2024/01/31 10:04:06;;;;;;;2.67;2.50;;;17.70;69.10;;;;;;5012174;28;43867;-68
2024/01/31 10:06:35;;;;;;;2.63;2.43;;;17.70;69.10;;;;;;5012021;28;44726;-68
2024/01/31 10:09:06;;;;;;;2.53;2.33;;;17.60;69.90;;;;;;5008092;28;43445;-69
2024/01/31 10:11:34;;;;;;;2.63;2.43;;;17.60;69.30;;;;;;5012802;28;43370;-68
2024/01/31 10:14:02;;;;;;;2.07;1.97;;;17.60;69.20;;;;;;5009810;28;44099;-68
2024/01/31 10:16:30;;;;;;;2.90;2.40;;;17.60;69.30;;;;;;5019878;28;43413;-68
2024/01/31 10:18:59;;;;;;;2.60;2.30;;;17.60;69.40;;;;;;5015759;28;43325;-68
2024/01/31 10:21:27;;;;;;;2.20;2.10;;;17.50;69.40;;;;;;5015319;28;43855;-68
2024/01/31 10:23:59;;;;;;;2.80;2.60;;;17.50;69.60;;;;;;5013060;28;43604;-68
2024/01/31 10:26:28;;;;;;;2.57;2.30;;;17.50;69.70;;;;;;5017409;28;43439;-68
2024/01/31 10:28:57;;;;;;;3.20;2.47;;;17.50;69.60;;;;;;5015852;28;43333;-69
2024/01/31 10:31:37;;;;;;;2.50;2.30;;;17.50;69.70;;;;;;5017336;28;43491;-68
2024/01/31 10:34:07;;;;;;;2.47;2.33;;;17.40;69.60;;;;;;5011522;28;43682;-69
2024/01/31 10:36:37;;;;;;;2.80;2.60;;;17.40;69.70;;;;;;5011311;28;43453;-68
2024/01/31 10:39:09;;;;;;;2.43;2.23;;;17.40;69.80;;;;;;5015621;28;43395;-68
2024/01/31 10:41:39;;;;;;;2.60;2.50;;;17.40;69.90;;;;;;5006537;28;43453;-68
2024/01/31 10:44:08;;;;;;;2.50;2.33;;;17.40;69.80;;;;;;5013643;28;44058;-68
2024/01/31 10:46:41;;;;;;;2.30;2.20;;;17.40;69.70;;;;;;5010381;28;43456;-67
2024/01/31 10:49:13;;;;;;;2.37;2.27;;;17.40;69.80;;;;;;5010864;28;43428;-68
2024/01/31 10:51:42;;;;;;;2.33;2.17;;;17.40;69.80;;;;;;5019016;28;43432;-68
2024/01/31 10:54:10;;;;;;;2.70;2.50;;;17.40;69.90;;;;;;5016474;28;43956;-68
2024/01/31 10:56:39;;;;;;;2.60;2.50;;;17.40;70.10;;;;;;5014930;28;43364;-68
2024/01/31 10:59:08;;;;;;;2.53;2.33;;;17.50;69.90;;;;;;5020205;28;43408;-68
2024/01/31 11:01:36;;;;;;;2.50;2.30;;;17.60;69.60;;;;;;5012077;28;44013;-68
2024/01/31 11:04:08;;;;;;;2.33;2.23;;;17.60;69.30;;;;;;5016162;28;43909;-67
2024/01/31 11:06:40;;;;;;;2.27;2.17;;;17.60;69.20;;;;;;5014247;28;43387;-68
2024/01/31 11:09:16;;;;;;;2.40;2.30;;;17.60;69.30;;;;;;5010873;28;43419;-68
2024/01/31 11:11:45;;;;;;;2.33;2.23;;;17.60;69.60;;;;;;5020032;28;43471;-66
2024/01/31 11:14:14;;;;;;;2.60;2.50;;;17.60;69.40;;;;;;5031909;28;44009;-66
2024/01/31 11:16:42;;;;;;;2.50;2.40;;;17.60;69.40;;;;;;5033922;28;44493;-66
2024/01/31 11:19:10;;;;;;;2.60;2.40;;;17.50;69.40;;;;;;5024753;28;43377;-66
2024/01/31 11:21:41;;;;;;;2.23;2.13;;;17.50;69.50;;;;;;5036330;28;43368;-66
2024/01/31 11:24:09;;;;;;;3.00;2.37;;;17.50;69.60;;;;;;5039454;28;44938;-66
2024/01/31 11:26:39;;;;;;;2.40;2.30;;;17.50;69.90;;;;;;5033237;28;45079;-67
2024/01/31 11:29:08;;;;;;;2.50;2.40;;;17.50;69.70;;;;;;5036015;28;43417;-66
2024/01/31 11:31:37;;;;;;;2.40;2.30;;;17.50;69.70;;;;;;5030478;28;43846;-67
2024/01/31 11:34:05;;;;;;;2.10;2.00;;;17.50;69.80;;;;;;5030033;28;43622;-66
2024/01/31 11:36:33;;;;;;;2.27;2.17;;;17.50;70.60;;;;;;5041860;28;43425;-66
2024/01/31 11:39:05;;;;;;;2.60;2.33;;;17.40;69.80;;;;;;5035656;28;43348;-67
2024/01/31 11:41:33;;;;;;;2.20;2.10;;;17.40;69.90;;;;;;5027322;28;43505;-67
2024/01/31 11:44:02;;;;;;;2.30;2.20;;;17.50;70.00;;;;;;5035779;28;43638;-67
2024/01/31 11:46:32;;;;;;;2.90;2.27;;;17.60;69.70;;;;;;5029189;28;44122;-66
2024/01/31 11:49:03;;;;;;;2.10;2.00;;;17.60;69.30;;;;;;5024751;28;43329;-67
2024/01/31 11:51:31;;;;;;;2.50;2.40;;;17.60;69.30;;;;;;5025943;28;43426;-67
2024/01/31 11:53:59;;;;;;;2.20;2.10;;;17.60;69.40;;;;;;5031720;28;43942;-67
2024/01/31 11:56:27;;;;;;;2.83;2.63;;;17.60;69.60;;;;;;5033445;28;43435;-66
2024/01/31 11:58:55;;;;;;;2.43;2.33;;;17.50;69.50;;;;;;5035756;28;43433;-67
2024/01/31 12:01:24;;;;;;;2.20;2.10;;;17.50;70.10;;;;;;5038717;28;43350;-66
2024/01/31 12:03:53;;;;;;;2.83;2.70;;;17.50;69.50;;;;;;5030676;28;43863;-66
2024/01/31 12:06:21;;;;;;;2.20;2.10;;;17.50;69.60;;;;;;5031464;28;43511;-66
2024/01/31 12:08:52;;;;;;;2.50;2.40;;;17.50;69.60;;;;;;5036944;28;43404;-66
2024/01/31 12:11:21;;;;;;;2.87;2.63;;;17.50;69.70;;;;;;5032502;28;43349;-66
2024/01/31 12:13:50;;;;;;;2.40;2.30;;;17.50;69.90;;;;;;5030391;28;43998;-66
2024/01/31 12:16:18;;;;;;;1.90;1.87;;;17.50;69.70;;;;;;5033662;28;43405;-66
2024/01/31 12:18:46;;;;;;;2.43;2.23;;;17.50;69.80;;;;;;5034227;28;43424;-66
2024/01/31 12:21:15;;;;;;;2.43;2.33;;;17.50;69.80;;;;;;5036317;28;43482;-66
2024/01/31 12:23:44;;;;;;;2.27;2.17;;;17.40;69.70;;;;;;5034070;28;43826;-66
2024/01/31 12:26:13;;;;;;;2.23;2.10;;;17.40;69.80;;;;;;5036467;28;44070;-66
2024/01/31 12:28:41;;;;;;;2.63;2.47;;;17.50;70.10;;;;;;5026886;28;43401;-66
2024/01/31 12:31:09;;;;;;;2.30;2.20;;;17.50;69.80;;;;;;5034752;28;43377;-66
2024/01/31 12:33:41;;;;;;;2.40;2.30;;;17.60;69.40;;;;;;5037797;28;44872;-66
2024/01/31 12:36:09;;;;;;;2.40;2.30;;;17.70;69.20;;;;;;5034012;28;43410;-66
2024/01/31 12:38:43;;;;;;;2.50;2.40;;;17.70;69.10;;;;;;5033483;28;43884;-66
2024/01/31 12:41:12;;;;;;;2.23;2.13;;;17.60;69.20;;;;;;5032543;28;43448;-66
2024/01/31 12:43:40;;;;;;;2.47;2.27;;;17.60;69.30;;;;;;5029456;28;43863;-67
2024/01/31 12:46:08;;;;;;;2.60;2.50;;;17.60;70.00;;;;;;5030785;28;43405;-66
2024/01/31 12:48:36;;;;;;;2.50;2.40;;;17.60;69.30;;;;;;5035550;28;43909;-66
2024/01/31 12:51:07;;;;;;;2.77;2.57;;;17.60;69.40;;;;;;5030957;28;43407;-66
2024/01/31 12:53:36;;;;;;;2.80;2.60;;;17.50;69.40;;;;;;5036235;28;43670;-67
2024/01/31 12:56:06;;;;;;;3.00;2.80;;;17.50;69.60;;;;;;5038179;28;43394;-66
2024/01/31 12:58:34;;;;;;;2.70;2.60;;;17.50;69.80;;;;;;5033037;28;43474;-66
2024/01/31 13:01:06;;;;;;;2.70;2.60;;;17.50;69.70;;;;;;5036000;28;43353;-67
2024/01/31 13:03:35;;;;;;;3.03;2.87;;;17.50;69.70;;;;;;5034879;28;43875;-66
2024/01/31 13:06:05;;;;;;;3.10;2.90;;;17.50;69.70;;;;;;5036377;28;43337;-67
2024/01/31 13:08:40;;;;;;;3.30;3.10;;;17.50;69.80;;;;;;5029698;28;43360;-65